Time;durP1;ratioP1;P1;durP2;ratioP2;P2;SDS_P1;SDS_P2;PMS_P1;PMS_P2;Temp;Humidity;BMP_temperature;BMP_pressure;BME280_temperature;BME280_humidity;BME280_pressure;Samples;Min_cycle;Max_cycle;Signal;HPM_P1;HPM_P2
2022/06/12 00:01:58;;;;;;;8.37;7.57;;;;;;;;;;5052829;28;20453;-79
2022/06/12 00:04:25;;;;;;;8.93;8.03;;;;;;;;;;5052693;28;20508;-78
2022/06/12 00:06:52;;;;;;;8.60;7.70;;;;;;;;;;5052783;28;20491;-79
2022/06/12 00:09:20;;;;;;;8.23;7.53;;;;;;;;;;5052543;28;20485;-78
2022/06/12 00:11:47;;;;;;;9.30;8.07;;;;;;;;;;5052824;28;20445;-78
2022/06/12 00:14:15;;;;;;;9.10;8.20;;;;;;;;;;5052466;28;20446;-78
2022/06/12 00:16:45;;;;;;;8.20;7.50;;;;;;;;;;5054375;28;20452;-78
2022/06/12 00:19:12;;;;;;;8.73;7.97;;;;;;;;;;5059917;28;20438;-78
2022/06/12 00:21:39;;;;;;;8.07;7.10;;;;;;;;;;5060541;28;20491;-78
2022/06/12 00:24:08;;;;;;;8.00;7.40;;;;;;;;;;5060804;28;20446;-78
2022/06/12 00:26:36;;;;;;;10.40;7.33;;;;;;;;;;5060450;28;20852;-79
2022/06/12 00:29:05;;;;;;;7.60;6.90;;;;;;;;;;5061821;28;20464;-79
2022/06/12 00:31:34;;;;;;;8.30;7.60;;;;;;;;;;5058883;28;20452;-78
2022/06/12 00:34:02;;;;;;;8.00;7.30;;;;;;;;;;5053405;28;20442;-79
2022/06/12 00:36:30;;;;;;;8.40;7.60;;;;;;;;;;5052898;28;20445;-78
2022/06/12 00:38:57;;;;;;;8.43;7.50;;;;;;;;;;5052954;28;20445;-79
2022/06/12 00:41:24;;;;;;;8.13;7.43;;;;;;;;;;5054459;28;20501;-79
2022/06/12 00:43:52;;;;;;;8.07;7.27;;;;;;;;;;5057790;28;20448;-78
2022/06/12 00:46:39;;;;;;;10.07;7.00;;;;;;;;;;5052332;28;20478;-78
2022/06/12 00:49:12;;;;;;;8.70;8.00;;;;;;;;;;5053054;28;20445;-79
2022/06/12 00:51:39;;;;;;;7.90;7.20;;;;;;;;;;5052504;28;20507;-78
2022/06/12 00:54:07;;;;;;;8.20;7.50;;;;;;;;;;5051954;28;20924;-78
2022/06/12 00:56:36;;;;;;;8.33;7.57;;;;;;;;;;5050537;28;20453;-79
2022/06/12 00:59:05;;;;;;;8.17;7.43;;;;;;;;;;5050232;28;20957;-78
2022/06/12 01:01:34;;;;;;;8.33;7.73;;;;;;;;;;5050982;28;20507;-78
2022/06/12 01:06:45;;;;;;;7.40;6.90;;;;;;;;;;5010647;28;20927;-79
2022/06/12 01:09:14;;;;;;;8.03;7.43;;;;;;;;;;5054321;28;20433;-79
2022/06/12 01:11:43;;;;;;;8.43;7.67;;;;;;;;;;5054139;28;20500;-78
2022/06/12 01:14:11;;;;;;;8.87;8.17;;;;;;;;;;5054135;28;20457;-78
2022/06/12 01:16:45;;;;;;;8.17;7.47;;;;;;;;;;5054711;28;20441;-78
2022/06/12 01:19:13;;;;;;;8.70;7.90;;;;;;;;;;5054297;28;20477;-79
2022/06/12 01:21:55;;;;;;;8.13;7.53;;;;;;;;;;5054387;28;20483;-79
2022/06/12 01:24:35;;;;;;;8.93;7.60;;;;;;;;;;5051389;28;20542;-79
2022/06/12 01:27:29;;;;;;;8.83;8.17;;;;;;;;;;5053864;28;20821;-79
2022/06/12 01:30:02;;;;;;;8.97;8.17;;;;;;;;;;5054306;28;20888;-79
2022/06/12 01:32:33;;;;;;;9.57;8.60;;;;;;;;;;5054194;28;20438;-78
2022/06/12 01:35:05;;;;;;;9.37;8.57;;;;;;;;;;5053754;28;20582;-78
2022/06/12 01:37:38;;;;;;;8.47;7.67;;;;;;;;;;5053495;28;20449;-79
2022/06/12 01:40:09;;;;;;;7.50;6.90;;;;;;;;;;5053611;28;20454;-79
2022/06/12 01:42:38;;;;;;;9.10;8.30;;;;;;;;;;5053764;28;20473;-79
2022/06/12 01:45:13;;;;;;;8.83;8.10;;;;;;;;;;5053417;28;20529;-79
2022/06/12 01:47:46;;;;;;;9.43;8.60;;;;;;;;;;5053431;28;20444;-79
2022/06/12 01:50:16;;;;;;;8.10;7.50;;;;;;;;;;5053785;28;20575;-79
2022/06/12 01:52:51;;;;;;;8.67;7.97;;;;;;;;;;5053354;28;20541;-78
2022/06/12 01:55:20;;;;;;;8.57;7.77;;;;;;;;;;5053612;28;20449;-78
2022/06/12 01:57:49;;;;;;;8.23;7.53;;;;;;;;;;5053269;28;21094;-79
2022/06/12 02:00:20;;;;;;;7.93;7.43;;;;;;;;;;5053306;28;20458;-79
2022/06/12 02:02:50;;;;;;;8.40;7.70;;;;;;;;;;5053209;28;20488;-78
2022/06/12 02:05:19;;;;;;;8.43;7.57;;;;;;;;;;5053986;28;20441;-79
2022/06/12 02:07:49;;;;;;;9.80;7.57;;;;;;;;;;5053312;28;20458;-79
2022/06/12 02:10:18;;;;;;;8.93;8.13;;;;;;;;;;5053252;28;20477;-79
2022/06/12 02:15:37;;;;;;;7.97;7.30;;;;;;;;;;5053139;28;20425;-78
2022/06/12 02:18:06;;;;;;;9.33;8.43;;;;;;;;;;5052982;28;20434;-79
2022/06/12 02:20:34;;;;;;;8.93;8.17;;;;;;;;;;5052660;28;20458;-78
2022/06/12 02:23:03;;;;;;;8.80;7.93;;;;;;;;;;5052902;28;20491;-78
2022/06/12 02:25:33;;;;;;;8.37;7.57;;;;;;;;;;5053083;28;20511;-77
2022/06/12 02:28:03;;;;;;;8.90;8.20;;;;;;;;;;5053904;28;20441;-79
2022/06/12 02:30:31;;;;;;;9.90;8.93;;;;;;;;;;5053683;28;20492;-78
2022/06/12 02:33:05;;;;;;;8.47;7.73;;;;;;;;;;5052190;28;20503;-79
2022/06/12 02:35:34;;;;;;;8.20;7.60;;;;;;;;;;5053125;28;20906;-78
2022/06/12 02:38:03;;;;;;;9.00;8.30;;;;;;;;;;5053562;28;20445;-79
2022/06/12 02:40:32;;;;;;;8.77;8.10;;;;;;;;;;5055496;28;20469;-79
2022/06/12 02:43:00;;;;;;;9.30;8.53;;;;;;;;;;5054733;28;20438;-78
2022/06/12 02:45:29;;;;;;;8.70;8.00;;;;;;;;;;5055197;28;20481;-79
2022/06/12 02:47:56;;;;;;;8.83;8.03;;;;;;;;;;5054325;28;20944;-78
2022/06/12 02:50:27;;;;;;;11.40;8.00;;;;;;;;;;5051944;28;20523;-78
2022/06/12 02:52:58;;;;;;;8.80;8.03;;;;;;;;;;5052246;28;20787;-79
2022/06/12 02:55:27;;;;;;;9.20;8.30;;;;;;;;;;5053044;28;20434;-78
2022/06/12 02:57:57;;;;;;;9.07;8.27;;;;;;;;;;5053603;28;20451;-78
2022/06/12 03:00:27;;;;;;;10.20;9.30;;;;;;;;;;5052734;28;20462;-77
2022/06/12 03:02:57;;;;;;;8.40;7.70;;;;;;;;;;5051840;28;20870;-78
2022/06/12 03:05:26;;;;;;;8.73;8.03;;;;;;;;;;5052608;28;20430;-78
2022/06/12 03:07:59;;;;;;;8.67;7.97;;;;;;;;;;5052813;28;20448;-78
2022/06/12 03:10:28;;;;;;;10.67;8.70;;;;;;;;;;5052201;28;20495;-79
2022/06/12 03:12:55;;;;;;;9.70;8.37;;;;;;;;;;5052483;28;20445;-78
2022/06/12 03:15:29;;;;;;;9.83;8.80;;;;;;;;;;5051962;28;20445;-77
2022/06/12 03:17:57;;;;;;;9.43;8.63;;;;;;;;;;5051937;28;20511;-77
2022/06/12 03:20:29;;;;;;;9.33;8.53;;;;;;;;;;5052334;28;20536;-78
2022/06/12 03:23:08;;;;;;;9.33;8.50;;;;;;;;;;5051528;28;20446;-78
2022/06/12 03:25:38;;;;;;;8.60;8.00;;;;;;;;;;5051179;28;20469;-78
2022/06/12 03:28:09;;;;;;;9.37;8.30;;;;;;;;;;5052032;28;20802;-78
2022/06/12 03:30:40;;;;;;;9.80;8.57;;;;;;;;;;5051578;28;20539;-79
2022/06/12 03:33:12;;;;;;;9.67;8.87;;;;;;;;;;5051557;28;20438;-78
2022/06/12 03:35:50;;;;;;;9.83;8.87;;;;;;;;;;5051393;28;20472;-78
2022/06/12 03:38:22;;;;;;;9.63;8.77;;;;;;;;;;5051575;28;20442;-79
2022/06/12 03:40:52;;;;;;;9.67;8.73;;;;;;;;;;5052874;28;21046;-77
2022/06/12 03:43:23;;;;;;;9.83;9.03;;;;;;;;;;5051656;28;20453;-78
2022/06/12 03:45:53;;;;;;;9.83;8.90;;;;;;;;;;5052695;28;20507;-78
2022/06/12 03:48:23;;;;;;;10.10;9.23;;;;;;;;;;5051137;28;20793;-77
2022/06/12 03:50:58;;;;;;;11.13;10.07;;;;;;;;;;5051436;28;20478;-79
2022/06/12 03:53:28;;;;;;;9.07;8.37;;;;;;;;;;5051157;28;20441;-78
2022/06/12 03:58:47;;;;;;;9.90;9.00;;;;;;;;;;5051577;28;20496;-77
2022/06/12 04:01:14;;;;;;;9.70;8.70;;;;;;;;;;5051422;28;20519;-77
2022/06/12 04:03:44;;;;;;;9.40;8.60;;;;;;;;;;5051874;28;20442;-78
2022/06/12 04:06:13;;;;;;;10.30;9.30;;;;;;;;;;5051391;28;20861;-77
2022/06/12 04:08:42;;;;;;;9.30;8.50;;;;;;;;;;5051029;28;20449;-78
2022/06/12 04:11:10;;;;;;;10.60;9.70;;;;;;;;;;5051325;28;20599;-78
2022/06/12 04:13:38;;;;;;;12.60;9.70;;;;;;;;;;5050954;28;20437;-78
2022/06/12 04:16:07;;;;;;;9.70;8.83;;;;;;;;;;5051274;28;20538;-77
2022/06/12 04:18:34;;;;;;;10.13;9.27;;;;;;;;;;5056935;28;20445;-77
2022/06/12 04:21:02;;;;;;;10.20;9.30;;;;;;;;;;5072180;28;20488;-78
2022/06/12 04:23:37;;;;;;;10.57;9.67;;;;;;;;;;5071341;28;20456;-78
2022/06/12 04:26:09;;;;;;;10.30;9.40;;;;;;;;;;5071641;28;20429;-78
2022/06/12 04:28:38;;;;;;;9.80;9.03;;;;;;;;;;5071369;28;20438;-78
2022/06/12 04:31:06;;;;;;;10.37;9.53;;;;;;;;;;5071972;28;20500;-78
2022/06/12 04:34:00;;;;;;;9.83;9.03;;;;;;;;;;5073451;28;20445;-78
2022/06/12 04:36:28;;;;;;;10.77;9.67;;;;;;;;;;5006806;28;20969;-79
2022/06/12 04:38:57;;;;;;;10.93;9.93;;;;;;;;;;5052755;28;20518;-78
2022/06/12 04:41:25;;;;;;;10.13;9.20;;;;;;;;;;5051313;28;20441;-79
2022/06/12 04:43:52;;;;;;;9.50;8.70;;;;;;;;;;5050595;28;20999;-79
2022/06/12 04:46:20;;;;;;;9.80;8.90;;;;;;;;;;5050971;28;20442;-80
2022/06/12 04:48:48;;;;;;;9.97;9.10;;;;;;;;;;5047757;28;20457;-78
2022/06/12 04:51:15;;;;;;;9.93;9.00;;;;;;;;;;5065098;28;20485;-79
2022/06/12 04:53:43;;;;;;;10.63;9.67;;;;;;;;;;5063901;28;20503;-79
2022/06/12 04:56:12;;;;;;;10.33;9.43;;;;;;;;;;5060052;28;20476;-79
2022/06/12 04:58:40;;;;;;;9.60;8.70;;;;;;;;;;5050763;28;20449;-79
2022/06/12 05:01:07;;;;;;;9.90;8.73;;;;;;;;;;5051063;28;20465;-78
2022/06/12 05:03:35;;;;;;;10.23;9.23;;;;;;;;;;5050787;28;20483;-78
2022/06/12 05:06:02;;;;;;;9.93;9.00;;;;;;;;;;5050899;28;20453;-78
2022/06/12 05:08:29;;;;;;;10.43;9.63;;;;;;;;;;5051278;28;20559;-78
2022/06/12 05:10:56;;;;;;;9.37;8.57;;;;;;;;;;5051074;28;20539;-78
2022/06/12 05:13:24;;;;;;;9.50;8.80;;;;;;;;;;5050849;28;20457;-79
2022/06/12 05:15:51;;;;;;;9.60;8.80;;;;;;;;;;5050241;28;20457;-78
2022/06/12 05:18:19;;;;;;;8.80;7.90;;;;;;;;;;5050083;28;20449;-78
2022/06/12 05:20:47;;;;;;;10.30;9.30;;;;;;;;;;5049508;28;20457;-77
2022/06/12 05:23:14;;;;;;;10.10;9.30;;;;;;;;;;5049522;28;20507;-79
2022/06/12 05:25:42;;;;;;;9.40;8.40;;;;;;;;;;5049408;28;20449;-78
2022/06/12 05:28:09;;;;;;;9.63;8.87;;;;;;;;;;5049353;28;21015;-78
2022/06/12 05:30:37;;;;;;;8.70;8.00;;;;;;;;;;5049888;28;20457;-77
2022/06/12 05:33:05;;;;;;;8.07;7.57;;;;;;;;;;5048996;28;20441;-78
2022/06/12 05:35:33;;;;;;;9.10;8.30;;;;;;;;;;5049663;28;20446;-79
2022/06/12 05:38:00;;;;;;;9.20;8.40;;;;;;;;;;5049709;28;21017;-78
2022/06/12 05:40:29;;;;;;;8.80;8.00;;;;;;;;;;5049806;28;20462;-79
2022/06/12 05:42:56;;;;;;;9.17;8.30;;;;;;;;;;5049479;28;20484;-79
2022/06/12 05:45:25;;;;;;;8.53;7.83;;;;;;;;;;5049018;28;20449;-78
2022/06/12 05:47:54;;;;;;;9.33;8.53;;;;;;;;;;5049831;28;20507;-78
2022/06/12 05:50:22;;;;;;;8.20;7.50;;;;;;;;;;5053561;28;20465;-78
2022/06/12 05:52:49;;;;;;;8.47;7.67;;;;;;;;;;5053237;28;20477;-78
2022/06/12 05:55:17;;;;;;;8.63;7.93;;;;;;;;;;5052945;28;20497;-78
2022/06/12 05:57:44;;;;;;;8.73;7.90;;;;;;;;;;5052989;28;20468;-77
2022/06/12 06:00:15;;;;;;;9.30;8.40;;;;;;;;;;5052582;28;20519;-78
2022/06/12 06:02:42;;;;;;;8.43;7.73;;;;;;;;;;5053089;28;20440;-78
2022/06/12 06:05:11;;;;;;;9.67;8.83;;;;;;;;;;5052965;28;20515;-79
2022/06/12 06:07:39;;;;;;;8.93;8.23;;;;;;;;;;5053017;28;21055;-78
2022/06/12 06:10:08;;;;;;;8.60;7.80;;;;;;;;;;5052952;28;20926;-79
2022/06/12 06:12:35;;;;;;;7.77;7.17;;;;;;;;;;5052491;28;20473;-78
2022/06/12 06:15:02;;;;;;;8.80;8.10;;;;;;;;;;5053169;28;20505;-78
2022/06/12 06:17:29;;;;;;;8.70;8.10;;;;;;;;;;5053040;28;20449;-79
2022/06/12 06:19:56;;;;;;;7.50;6.80;;;;;;;;;;5052867;28;20454;-78
2022/06/12 06:22:25;;;;;;;7.70;7.10;;;;;;;;;;5052700;28;20510;-78
2022/06/12 06:24:52;;;;;;;7.87;7.30;;;;;;;;;;5052762;28;20902;-78
2022/06/12 06:27:19;;;;;;;7.73;7.17;;;;;;;;;;5053164;28;20445;-79
2022/06/12 06:29:46;;;;;;;8.33;7.73;;;;;;;;;;5053323;28;20458;-77
2022/06/12 06:32:13;;;;;;;8.30;7.50;;;;;;;;;;5053124;28;20481;-78
2022/06/12 06:34:41;;;;;;;7.23;6.60;;;;;;;;;;5053883;28;20457;-79
2022/06/12 06:37:09;;;;;;;7.50;6.90;;;;;;;;;;5053258;28;21045;-79
2022/06/12 06:39:38;;;;;;;8.13;7.23;;;;;;;;;;5051846;28;20466;-77
2022/06/12 06:42:06;;;;;;;7.33;6.83;;;;;;;;;;5054140;28;20438;-78
2022/06/12 06:47:17;;;;;;;8.43;7.60;;;;;;;;;;5052708;28;20412;-78
2022/06/12 06:49:44;;;;;;;7.50;6.87;;;;;;;;;;5052740;28;20461;-77
2022/06/12 06:52:11;;;;;;;7.30;6.70;;;;;;;;;;5054475;28;20540;-77
2022/06/12 06:54:40;;;;;;;7.73;6.67;;;;;;;;;;5052694;28;20506;-79
2022/06/12 06:57:08;;;;;;;7.30;6.60;;;;;;;;;;5052603;28;20443;-78
2022/06/12 06:59:35;;;;;;;7.27;6.47;;;;;;;;;;5053917;28;20513;-79
2022/06/12 07:02:02;;;;;;;6.70;6.20;;;;;;;;;;5052464;28;20442;-78
2022/06/12 07:04:30;;;;;;;9.70;7.03;;;;;;;;;;5052381;28;20518;-80
2022/06/12 07:06:57;;;;;;;8.57;7.67;;;;;;;;;;5052834;28;20498;-78
2022/06/12 07:09:24;;;;;;;7.13;6.53;;;;;;;;;;5052512;28;20515;-79
2022/06/12 07:11:52;;;;;;;8.23;7.57;;;;;;;;;;5052778;28;20549;-78
2022/06/12 07:14:19;;;;;;;7.47;6.80;;;;;;;;;;5053371;28;20434;-79
2022/06/12 07:16:47;;;;;;;6.70;6.13;;;;;;;;;;5052581;28;20446;-77
2022/06/12 07:19:14;;;;;;;7.57;6.87;;;;;;;;;;5052401;28;20494;-79
2022/06/12 07:21:41;;;;;;;6.00;5.50;;;;;;;;;;5052507;28;20445;-79
2022/06/12 07:24:09;;;;;;;6.23;5.83;;;;;;;;;;5053110;28;20438;-78
2022/06/12 07:26:37;;;;;;;7.07;6.50;;;;;;;;;;5052244;28;20457;-78
2022/06/12 07:29:05;;;;;;;6.80;6.20;;;;;;;;;;5051378;28;20492;-79
2022/06/12 07:31:33;;;;;;;6.73;6.13;;;;;;;;;;5051451;28;20540;-79
2022/06/12 07:34:00;;;;;;;6.30;5.80;;;;;;;;;;5051132;28;20472;-78
2022/06/12 07:36:27;;;;;;;6.83;6.23;;;;;;;;;;5051342;28;20507;-79
2022/06/12 07:38:55;;;;;;;7.30;6.60;;;;;;;;;;5051409;28;20445;-79
2022/06/12 07:41:22;;;;;;;6.80;6.20;;;;;;;;;;5051803;28;20461;-79
2022/06/12 07:43:49;;;;;;;6.50;6.00;;;;;;;;;;5051125;28;20442;-78
2022/06/12 07:46:19;;;;;;;7.00;6.40;;;;;;;;;;5051109;28;20446;-78
2022/06/12 07:48:47;;;;;;;8.43;6.40;;;;;;;;;;5051114;28;20441;-79
2022/06/12 07:51:16;;;;;;;7.00;6.47;;;;;;;;;;5051268;28;20873;-78
2022/06/12 07:53:43;;;;;;;6.07;5.50;;;;;;;;;;5051139;28;20441;-78
2022/06/12 07:56:10;;;;;;;7.47;6.50;;;;;;;;;;5051022;28;20454;-79
2022/06/12 07:58:38;;;;;;;6.47;5.87;;;;;;;;;;5050528;28;20445;-79
2022/06/12 08:01:06;;;;;;;7.03;6.33;;;;;;;;;;5051049;28;20519;-78
2022/06/12 08:03:35;;;;;;;5.87;5.37;;;;;;;;;;5051873;28;20519;-78
2022/06/12 08:06:02;;;;;;;6.50;5.23;;;;;;;;;;5051917;28;20453;-79
2022/06/12 08:08:30;;;;;;;6.73;5.80;;;;;;;;;;5051196;28;20445;-78
2022/06/12 08:10:57;;;;;;;8.43;6.00;;;;;;;;;;5050761;28;20445;-78
2022/06/12 08:13:24;;;;;;;6.50;5.90;;;;;;;;;;5050318;28;20486;-78
2022/06/12 08:15:52;;;;;;;6.13;5.53;;;;;;;;;;5051590;28;20500;-79
2022/06/12 08:18:20;;;;;;;6.30;5.80;;;;;;;;;;5053115;28;20950;-78
2022/06/12 08:20:50;;;;;;;6.03;5.63;;;;;;;;;;5051776;28;20500;-79
2022/06/12 08:23:29;;;;;;;7.73;5.77;;;;;;;;;;5051278;28;20449;-78
2022/06/12 08:25:57;;;;;;;6.17;5.63;;;;;;;;;;5050400;28;20446;-78
2022/06/12 08:28:24;;;;;;;6.87;5.57;;;;;;;;;;5050777;28;20449;-79
2022/06/12 08:30:52;;;;;;;6.83;6.20;;;;;;;;;;5050298;28;20476;-78
2022/06/12 08:33:19;;;;;;;6.60;6.00;;;;;;;;;;5050127;28;20819;-79
2022/06/12 08:35:46;;;;;;;5.60;5.17;;;;;;;;;;5050490;28;20856;-78
2022/06/12 08:38:15;;;;;;;9.00;6.10;;;;;;;;;;5051154;28;20446;-78
2022/06/12 08:40:45;;;;;;;5.97;5.47;;;;;;;;;;5051395;28;20473;-78
2022/06/12 08:43:15;;;;;;;5.70;5.27;;;;;;;;;;5050463;28;20487;-79
2022/06/12 08:45:45;;;;;;;6.03;5.43;;;;;;;;;;5050922;28;20453;-78
2022/06/12 08:48:15;;;;;;;5.57;5.17;;;;;;;;;;5051482;28;20484;-79
2022/06/12 08:50:44;;;;;;;6.07;5.47;;;;;;;;;;5051170;28;20465;-79
2022/06/12 08:53:16;;;;;;;5.07;4.67;;;;;;;;;;5051318;28;20504;-79
2022/06/12 08:55:48;;;;;;;5.50;5.00;;;;;;;;;;5050541;28;20502;-79
2022/06/12 08:58:18;;;;;;;5.40;5.10;;;;;;;;;;5057602;28;20453;-78
2022/06/12 09:00:46;;;;;;;7.07;4.90;;;;;;;;;;5059915;28;20516;-78
2022/06/12 09:03:15;;;;;;;5.37;4.97;;;;;;;;;;5057906;28;20442;-79
2022/06/12 09:05:46;;;;;;;5.83;5.33;;;;;;;;;;5058076;28;20564;-78
2022/06/12 09:08:15;;;;;;;5.60;5.10;;;;;;;;;;5059885;28;20528;-77
2022/06/12 09:10:43;;;;;;;4.87;4.50;;;;;;;;;;5057653;28;20461;-79
2022/06/12 09:13:16;;;;;;;5.03;4.53;;;;;;;;;;5050573;28;20507;-79
2022/06/12 09:15:46;;;;;;;5.00;4.60;;;;;;;;;;5050355;28;20529;-79
2022/06/12 09:18:18;;;;;;;4.37;4.07;;;;;;;;;;5050656;28;20798;-78
2022/06/12 09:20:49;;;;;;;4.73;4.43;;;;;;;;;;5050336;28;20511;-78
2022/06/12 09:23:22;;;;;;;5.10;4.60;;;;;;;;;;5050637;28;20437;-79
2022/06/12 09:25:53;;;;;;;3.70;3.40;;;;;;;;;;5054123;28;20457;-79
2022/06/12 09:28:26;;;;;;;3.73;3.43;;;;;;;;;;5054227;28;20438;-78
2022/06/12 09:30:57;;;;;;;4.13;3.83;;;;;;;;;;5053722;28;20477;-79
2022/06/12 09:33:28;;;;;;;5.50;3.60;;;;;;;;;;5054302;28;20481;-79
2022/06/12 09:36:03;;;;;;;3.47;3.23;;;;;;;;;;5053679;28;20855;-79
2022/06/12 09:38:38;;;;;;;3.87;3.50;;;;;;;;;;5053152;28;20471;-79
2022/06/12 09:41:12;;;;;;;3.90;3.60;;;;;;;;;;5054688;28;20530;-79
2022/06/12 09:43:46;;;;;;;3.67;3.37;;;;;;;;;;5053826;28;20452;-78
2022/06/12 09:46:18;;;;;;;7.10;4.20;;;;;;;;;;5054140;28;20536;-79
2022/06/12 09:48:54;;;;;;;3.93;3.57;;;;;;;;;;5054104;28;20910;-79
2022/06/12 09:51:28;;;;;;;5.30;3.90;;;;;;;;;;5053853;28;20892;-79
2022/06/12 09:54:05;;;;;;;4.17;3.80;;;;;;;;;;5054233;28;20476;-78
2022/06/12 09:56:35;;;;;;;3.50;3.20;;;;;;;;;;5053849;28;20456;-78
2022/06/12 09:59:07;;;;;;;4.07;3.70;;;;;;;;;;5053412;28;20499;-79
2022/06/12 10:01:35;;;;;;;3.90;3.70;;;;;;;;;;5053747;28;20795;-79
2022/06/12 10:04:05;;;;;;;3.60;3.40;;;;;;;;;;5053073;28;20579;-79
2022/06/12 10:06:33;;;;;;;3.93;3.60;;;;;;;;;;5053006;28;20449;-80
2022/06/12 10:09:03;;;;;;;3.60;3.40;;;;;;;;;;5053562;28;20445;-78
2022/06/12 10:11:32;;;;;;;4.03;3.10;;;;;;;;;;5053922;28;20468;-78
2022/06/12 10:14:01;;;;;;;4.20;3.80;;;;;;;;;;5053722;28;20534;-79
2022/06/12 10:16:32;;;;;;;5.23;3.80;;;;;;;;;;5054992;28;20515;-78
2022/06/12 10:19:01;;;;;;;3.57;3.27;;;;;;;;;;5052771;28;20452;-79
2022/06/12 10:21:29;;;;;;;4.00;3.70;;;;;;;;;;5054301;28;20533;-79
2022/06/12 10:23:56;;;;;;;3.97;3.63;;;;;;;;;;5053459;28;20483;-78
2022/06/12 10:26:24;;;;;;;3.80;3.50;;;;;;;;;;5052853;28;20446;-79
2022/06/12 10:29:01;;;;;;;4.93;3.77;;;;;;;;;;5053403;28;20932;-79
2022/06/12 10:31:28;;;;;;;4.17;3.77;;;;;;;;;;5053994;28;20441;-79
2022/06/12 10:34:05;;;;;;;3.30;3.10;;;;;;;;;;5066543;28;20541;-78
2022/06/12 10:36:33;;;;;;;3.70;3.40;;;;;;;;;;5070439;28;20446;-79
2022/06/12 10:39:05;;;;;;;4.50;3.57;;;;;;;;;;5053197;28;20438;-79
2022/06/12 10:41:33;;;;;;;3.37;2.90;;;;;;;;;;5053324;28;20499;-79
2022/06/12 10:44:00;;;;;;;4.73;3.80;;;;;;;;;;5052377;28;20434;-78
2022/06/12 10:46:28;;;;;;;5.80;3.27;;;;;;;;;;5052243;28;20495;-78
2022/06/12 10:48:58;;;;;;;3.57;3.27;;;;;;;;;;5053215;28;20528;-80
2022/06/12 10:51:26;;;;;;;3.40;3.10;;;;;;;;;;5053285;28;20932;-79
2022/06/12 10:54:00;;;;;;;3.40;3.10;;;;;;;;;;5052500;28;20576;-79
2022/06/12 10:56:30;;;;;;;3.30;3.10;;;;;;;;;;5052338;28;20492;-78
2022/06/12 10:59:11;;;;;;;4.30;3.40;;;;;;;;;;5052379;28;20502;-79
2022/06/12 11:01:43;;;;;;;3.50;3.27;;;;;;;;;;5052695;28;20434;-79
2022/06/12 11:04:19;;;;;;;4.23;3.63;;;;;;;;;;5051498;28;20445;-79
2022/06/12 11:06:51;;;;;;;3.80;3.53;;;;;;;;;;5053483;28;20536;-79
2022/06/12 11:09:24;;;;;;;3.73;3.53;;;;;;;;;;5053075;28;22437;-79
2022/06/12 11:11:55;;;;;;;4.03;3.70;;;;;;;;;;5052506;28;20456;-77
2022/06/12 11:14:30;;;;;;;4.00;3.70;;;;;;;;;;5052628;28;20821;-79
2022/06/12 11:17:04;;;;;;;3.50;3.20;;;;;;;;;;5051396;28;20449;-78
2022/06/12 11:19:39;;;;;;;5.30;3.20;;;;;;;;;;5048939;28;20522;-79
2022/06/12 11:22:10;;;;;;;3.20;3.00;;;;;;;;;;5053238;28;20487;-79
2022/06/12 11:24:39;;;;;;;3.73;3.30;;;;;;;;;;5054459;28;20507;-79
2022/06/12 11:27:17;;;;;;;3.30;3.00;;;;;;;;;;5053085;28;20778;-79
2022/06/12 11:30:03;;;;;;;3.60;3.33;;;;;;;;;;5053025;28;20860;-78
2022/06/12 11:32:37;;;;;;;3.63;3.20;;;;;;;;;;5052546;28;20446;-79
2022/06/12 11:35:11;;;;;;;3.43;3.13;;;;;;;;;;5047130;28;20454;-78
2022/06/12 11:37:46;;;;;;;3.50;3.20;;;;;;;;;;5044774;28;20453;-79
2022/06/12 11:40:17;;;;;;;3.40;3.10;;;;;;;;;;5052579;28;20469;-77
2022/06/12 11:42:52;;;;;;;2.57;2.47;;;;;;;;;;5053178;28;20434;-78
2022/06/12 11:45:26;;;;;;;3.07;2.87;;;;;;;;;;5053068;28;20446;-79
2022/06/12 11:48:03;;;;;;;2.77;2.57;;;;;;;;;;5053318;28;20464;-79
2022/06/12 11:50:36;;;;;;;3.00;2.70;;;;;;;;;;5052700;28;20465;-80
2022/06/12 11:53:10;;;;;;;2.97;2.77;;;;;;;;;;5052373;28;20489;-79
2022/06/12 11:55:40;;;;;;;2.80;2.60;;;;;;;;;;5053049;28;20476;-79
2022/06/12 11:58:22;;;;;;;3.07;2.90;;;;;;;;;;5053586;28;20529;-79
2022/06/12 12:00:54;;;;;;;3.03;2.67;;;;;;;;;;5032819;28;20457;-79
2022/06/12 12:03:30;;;;;;;3.30;3.03;;;;;;;;;;5051669;28;20434;-78
2022/06/12 12:06:05;;;;;;;2.73;2.40;;;;;;;;;;5052707;28;20441;-80
2022/06/12 12:08:48;;;;;;;3.90;2.57;;;;;;;;;;5051878;28;20450;-79
2022/06/12 12:11:17;;;;;;;4.30;2.63;;;;;;;;;;5052471;28;20468;-79
2022/06/12 12:13:46;;;;;;;3.77;2.90;;;;;;;;;;5051775;28;20473;-78
2022/06/12 12:16:17;;;;;;;3.37;3.07;;;;;;;;;;5052076;28;20446;-79
2022/06/12 12:18:45;;;;;;;3.20;2.57;;;;;;;;;;5052625;28;20468;-77
2022/06/12 12:21:16;;;;;;;3.10;2.90;;;;;;;;;;5052344;28;20462;-79
2022/06/12 12:23:45;;;;;;;3.47;3.17;;;;;;;;;;5051695;28;20438;-79
2022/06/12 12:26:15;;;;;;;3.10;2.90;;;;;;;;;;5052156;28;20449;-78
2022/06/12 12:28:45;;;;;;;4.47;2.60;;;;;;;;;;5052707;28;20437;-78
2022/06/12 12:31:14;;;;;;;2.33;2.23;;;;;;;;;;5051809;28;20462;-78
2022/06/12 12:33:42;;;;;;;4.30;3.10;;;;;;;;;;5045474;28;20577;-79
2022/06/12 12:41:46;;;;;;;4.10;3.10;;;;;;;;;;5051275;28;20412;-79
2022/06/12 12:44:14;;;;;;;3.57;3.00;;;;;;;;;;5050545;28;20898;-79
2022/06/12 12:46:44;;;;;;;2.57;2.30;;;;;;;;;;5049234;28;20445;-78
2022/06/12 12:49:20;;;;;;;4.77;3.00;;;;;;;;;;5051509;28;20449;-78
2022/06/12 12:51:47;;;;;;;2.40;2.30;;;;;;;;;;5047888;28;20441;-78
2022/06/12 12:54:17;;;;;;;2.70;2.50;;;;;;;;;;5051829;28;20493;-79
2022/06/12 12:56:52;;;;;;;2.87;2.53;;;;;;;;;;5051750;28;20441;-78
2022/06/12 12:59:20;;;;;;;2.63;2.43;;;;;;;;;;5060817;28;20492;-79
2022/06/12 13:01:48;;;;;;;4.07;3.10;;;;;;;;;;5060835;28;20449;-79
2022/06/12 13:04:17;;;;;;;2.70;2.50;;;;;;;;;;5058925;28;20449;-79
2022/06/12 13:06:56;;;;;;;2.67;2.50;;;;;;;;;;5057886;28;20444;-79
2022/06/12 13:09:29;;;;;;;2.70;2.50;;;;;;;;;;5055927;28;20469;-79
2022/06/12 13:12:09;;;;;;;2.60;2.50;;;;;;;;;;5056383;28;20536;-80
2022/06/12 13:14:43;;;;;;;2.77;2.60;;;;;;;;;;5048065;28;21172;-79
2022/06/12 13:17:20;;;;;;;2.67;2.57;;;;;;;;;;5052616;28;20448;-79
2022/06/12 13:19:57;;;;;;;2.70;2.50;;;;;;;;;;5055857;28;20465;-79
2022/06/12 13:22:31;;;;;;;3.87;2.60;;;;;;;;;;5055455;28;20516;-79
2022/06/12 13:25:02;;;;;;;3.20;2.90;;;;;;;;;;5055329;28;20556;-80
2022/06/12 13:27:31;;;;;;;3.50;3.20;;;;;;;;;;5055526;28;20454;-80
2022/06/12 13:29:58;;;;;;;2.90;2.70;;;;;;;;;;5055958;28;20477;-79
2022/06/12 13:32:28;;;;;;;4.50;4.10;;;;;;;;;;5056126;28;20936;-80
2022/06/12 13:34:56;;;;;;;3.87;2.90;;;;;;;;;;5055707;28;20503;-80
2022/06/12 13:37:24;;;;;;;2.87;2.67;;;;;;;;;;5055888;28;20441;-79
2022/06/12 13:39:51;;;;;;;3.80;2.97;;;;;;;;;;5052076;28;20470;-80
2022/06/12 13:42:22;;;;;;;3.00;2.60;;;;;;;;;;5049557;28;20516;-79
2022/06/12 13:44:50;;;;;;;5.50;3.40;;;;;;;;;;5054468;28;20445;-80
2022/06/12 13:47:25;;;;;;;4.10;3.30;;;;;;;;;;5055897;28;20449;-79
2022/06/12 13:49:54;;;;;;;4.23;3.00;;;;;;;;;;5055832;28;20478;-79
2022/06/12 13:52:29;;;;;;;2.97;2.77;;;;;;;;;;5054975;28;20953;-79
2022/06/12 13:54:56;;;;;;;3.40;3.10;;;;;;;;;;5053350;28;20469;-78
2022/06/12 13:57:26;;;;;;;3.30;2.67;;;;;;;;;;5055446;28;20438;-79
2022/06/12 13:59:53;;;;;;;5.13;3.50;;;;;;;;;;5053646;28;20469;-79
2022/06/12 14:02:23;;;;;;;3.60;3.23;;;;;;;;;;5053067;28;20933;-78
2022/06/12 14:04:51;;;;;;;3.40;3.10;;;;;;;;;;5053549;28;20445;-79
2022/06/12 14:07:18;;;;;;;4.60;3.10;;;;;;;;;;5052869;28;20433;-79
2022/06/12 14:09:45;;;;;;;3.33;3.03;;;;;;;;;;5052336;28;20523;-80
2022/06/12 14:12:14;;;;;;;2.73;2.53;;;;;;;;;;5053598;28;20924;-80
2022/06/12 14:14:43;;;;;;;2.90;2.70;;;;;;;;;;5053867;28;21202;-80
2022/06/12 14:17:21;;;;;;;3.17;2.90;;;;;;;;;;5053460;28;20445;-79
2022/06/12 14:19:56;;;;;;;7.40;3.47;;;;;;;;;;5052748;28;20480;-79
2022/06/12 14:22:24;;;;;;;2.90;2.73;;;;;;;;;;5054630;28;20452;-80
2022/06/12 14:24:58;;;;;;;3.13;2.80;;;;;;;;;;5053953;28;20491;-79
2022/06/12 14:27:32;;;;;;;3.17;2.87;;;;;;;;;;5054423;28;20445;-79
2022/06/12 14:30:00;;;;;;;3.30;3.00;;;;;;;;;;5054039;28;20477;-79
2022/06/12 14:32:28;;;;;;;2.97;2.77;;;;;;;;;;5052854;28;20438;-80
2022/06/12 14:35:03;;;;;;;3.37;3.07;;;;;;;;;;5052833;28;20473;-80
2022/06/12 14:37:35;;;;;;;3.20;2.90;;;;;;;;;;5053097;28;20480;-79
2022/06/12 14:40:15;;;;;;;3.00;2.80;;;;;;;;;;5053076;28;20466;-81
2022/06/12 14:42:42;;;;;;;3.07;2.87;;;;;;;;;;5052842;28;20449;-78
2022/06/12 14:45:12;;;;;;;3.40;3.17;;;;;;;;;;5052129;28;20476;-78
2022/06/12 14:47:40;;;;;;;3.20;3.00;;;;;;;;;;5052761;28;20449;-79
2022/06/12 14:50:12;;;;;;;3.40;3.20;;;;;;;;;;5052861;28;20469;-80
2022/06/12 14:52:39;;;;;;;3.30;3.03;;;;;;;;;;5052775;28;20448;-79
2022/06/12 14:55:07;;;;;;;3.87;3.20;;;;;;;;;;5052502;28;20892;-80
2022/06/12 14:57:34;;;;;;;4.07;3.67;;;;;;;;;;5052127;28;20932;-78
2022/06/12 15:00:01;;;;;;;3.10;2.90;;;;;;;;;;5052383;28;20469;-79
2022/06/12 15:02:31;;;;;;;3.27;2.97;;;;;;;;;;5052868;28;20453;-79
2022/06/12 15:04:58;;;;;;;3.43;3.13;;;;;;;;;;5053463;28;20487;-79
2022/06/12 15:07:26;;;;;;;3.43;3.23;;;;;;;;;;5052673;28;20499;-79
2022/06/12 15:09:54;;;;;;;3.63;3.30;;;;;;;;;;5052380;28;20999;-78
2022/06/12 15:12:22;;;;;;;3.37;3.10;;;;;;;;;;5052004;28;20781;-78
2022/06/12 15:14:49;;;;;;;3.60;3.30;;;;;;;;;;5052436;28;21067;-80
2022/06/12 15:17:18;;;;;;;5.50;3.50;;;;;;;;;;5052661;28;20453;-79